createdAt,value
2018-09-20T00:00:40.766Z,65.60
2018-09-20T00:08:25.663Z,65.60
2018-09-20T00:13:35.565Z,65.70
2018-09-20T00:21:20.211Z,65.70
2018-09-20T00:29:04.744Z,65.80
2018-09-20T00:34:15.284Z,65.80
2018-09-20T00:39:25.706Z,65.80
2018-09-20T00:44:35.565Z,65.90
2018-09-20T00:49:45.788Z,65.90
2018-09-20T00:57:30.493Z,65.80
2018-09-20T01:02:40.329Z,65.80
2018-09-20T01:05:15.381Z,65.90
2018-09-20T01:10:25.284Z,65.90
2018-09-20T01:15:35.155Z,66.00
2018-09-20T01:18:10.282Z,66.10
2018-09-20T01:20:45.341Z,66.00
2018-09-20T01:25:55.026Z,66.10
2018-09-20T01:33:39.744Z,66.00
2018-09-20T01:36:14.776Z,66.10
2018-09-20T01:38:49.857Z,66.00
2018-09-20T01:41:24.977Z,66.10
2018-09-20T01:44:00.050Z,66.10
2018-09-20T01:46:35.096Z,65.90
2018-09-20T01:51:45.398Z,66.00
2018-09-20T01:56:55.333Z,66.20
2018-09-20T02:02:05.179Z,66.20
2018-09-20T02:04:40.262Z,66.10
2018-09-20T02:09:50.614Z,66.10
2018-09-20T02:12:25.705Z,66.20
2018-09-20T02:20:10.549Z,66.10
2018-09-20T02:25:20.586Z,66.20
2018-09-20T02:30:30.741Z,66.10
2018-09-20T02:33:05.833Z,66.20
2018-09-20T02:35:40.990Z,66.20
2018-09-20T02:38:16.032Z,66.20
2018-09-20T02:43:26.308Z,66.20
2018-09-20T02:48:36.017Z,66.20
2018-09-20T02:53:46.126Z,66.20
2018-09-20T02:58:56.753Z,66.20
2018-09-20T03:06:41.375Z,66.30
2018-09-20T03:11:51.253Z,66.30
2018-09-20T03:29:56.411Z,66.50
2018-09-20T03:45:25.975Z,66.50
2018-09-20T03:48:01.296Z,66.50
2018-09-20T03:50:36.362Z,66.50
2018-09-20T03:53:11.577Z,66.50
2018-09-20T03:55:46.660Z,66.50
2018-09-20T03:58:22.034Z,66.60
2018-09-20T04:00:57.044Z,66.50
2018-09-20T04:03:32.161Z,66.50
2018-09-20T04:08:42.282Z,66.40
2018-09-20T04:11:17.398Z,66.50
2018-09-20T04:16:27.201Z,66.50
2018-09-20T04:21:37.048Z,66.50
2018-09-20T04:24:12.147Z,66.50
2018-09-20T04:29:22.328Z,66.50
2018-09-20T04:39:42.672Z,66.50
2018-09-20T04:42:17.735Z,66.50
2018-09-20T04:44:52.959Z,66.60
2018-09-20T04:47:28.029Z,66.60
2018-09-20T04:50:03.129Z,66.60
2018-09-20T04:52:38.677Z,66.70
2018-09-20T04:55:13.730Z,66.60
2018-09-20T04:57:48.782Z,66.60
2018-09-20T05:00:23.845Z,66.60
2018-09-20T05:02:58.896Z,66.60
2018-09-20T05:18:27.965Z,66.60
2018-09-20T05:23:38.016Z,66.70
2018-09-20T05:31:22.763Z,66.70
2018-09-20T05:36:32.665Z,66.70
2018-09-20T05:39:09.299Z,66.70
2018-09-20T05:44:19.084Z,66.60
2018-09-20T05:46:54.190Z,66.70
2018-09-20T05:49:29.664Z,66.70
2018-09-20T05:54:39.487Z,66.70
2018-09-20T05:57:14.579Z,66.80
2018-09-20T06:02:24.932Z,66.80
2018-09-20T06:07:34.942Z,66.80
2018-09-20T06:12:44.765Z,66.70
2018-09-20T06:20:29.695Z,66.50
2018-09-20T06:25:39.854Z,66.50
2018-09-20T06:30:49.679Z,66.60
2018-09-20T06:33:24.806Z,66.70
2018-09-20T06:35:59.926Z,66.60
2018-09-20T06:38:35.052Z,66.60
2018-09-20T06:41:10.179Z,66.50
2018-09-20T06:48:54.616Z,66.50
2018-09-20T06:51:29.682Z,66.40
2018-09-20T07:01:49.117Z,65.80
2018-09-20T07:04:24.170Z,65.90
2018-09-20T07:09:34.028Z,66.00
2018-09-20T07:12:09.094Z,66.00
2018-09-20T07:14:44.201Z,65.90
2018-09-20T07:19:54.127Z,65.70
2018-09-20T07:22:29.236Z,65.70
2018-09-20T07:25:04.417Z,65.60
2018-09-20T07:37:59.138Z,65.60
2018-09-20T07:45:43.669Z,65.70
2018-09-20T07:50:53.953Z,65.70
2018-09-20T07:58:38.981Z,65.70
2018-09-20T08:01:14.201Z,65.70
2018-09-20T08:03:49.352Z,65.70
2018-09-20T08:08:59.289Z,65.80
2018-09-20T08:14:09.169Z,65.80
2018-09-20T08:19:19.511Z,65.90
2018-09-20T08:24:30.110Z,65.80
2018-09-20T08:37:24.708Z,65.70
2018-09-20T08:42:34.824Z,65.80
2018-09-20T08:50:19.892Z,65.90
2018-09-20T08:55:29.775Z,65.80
2018-09-20T09:00:39.786Z,65.60
2018-09-20T09:08:24.742Z,65.50
2018-09-20T09:13:34.511Z,65.60
2018-09-20T09:21:19.109Z,65.70
2018-09-20T09:23:54.154Z,65.60
2018-09-20T09:26:29.405Z,65.70
2018-09-20T09:39:24.034Z,65.70
2018-09-20T09:52:18.976Z,65.80
2018-09-20T09:54:54.047Z,65.70
2018-09-20T09:57:29.090Z,65.80
2018-09-20T10:05:14.843Z,65.70
2018-09-20T10:12:59.453Z,65.60
2018-09-20T10:20:43.948Z,65.50
2018-09-20T10:25:53.839Z,65.50
2018-09-20T10:28:28.939Z,65.60
2018-09-20T10:33:38.645Z,65.70
2018-09-20T10:46:33.440Z,65.70
2018-09-20T10:54:18.392Z,65.70
2018-09-20T10:59:28.209Z,65.80
2018-09-20T11:12:23.073Z,65.30
2018-09-20T11:17:33.247Z,65.50
2018-09-20T11:22:43.217Z,65.50
2018-09-20T11:27:53.132Z,65.50
2018-09-20T11:30:28.872Z,65.50
2018-09-20T11:33:04.075Z,65.60
2018-09-20T11:35:39.439Z,65.50
2018-09-20T11:43:24.513Z,65.50
2018-09-20T11:48:34.950Z,65.60
2018-09-20T11:53:45.312Z,65.50
2018-09-20T11:58:55.462Z,65.50
2018-09-20T12:04:05.659Z,65.60
2018-09-20T12:09:15.467Z,65.30
2018-09-20T12:11:50.524Z,65.30
2018-09-20T12:14:25.624Z,65.30
2018-09-20T12:17:00.700Z,65.30
2018-09-20T12:19:35.847Z,65.30
2018-09-20T12:22:10.952Z,65.20
2018-09-20T12:24:45.974Z,65.40
2018-09-20T12:27:21.004Z,65.30
2018-09-20T12:37:40.982Z,65.40
2018-09-20T12:45:25.638Z,65.30
2018-09-20T12:53:10.246Z,65.40
2018-09-20T12:58:24.265Z,65.40
2018-09-20T13:00:59.378Z,65.30
2018-09-20T13:03:34.529Z,65.30
2018-09-20T13:11:19.613Z,65.40
2018-09-20T13:16:29.669Z,65.40
2018-09-20T13:21:40.455Z,65.50
2018-09-20T13:26:50.868Z,65.30
2018-09-20T13:29:25.847Z,65.30
2018-09-20T13:32:00.966Z,65.40
2018-09-20T13:44:55.706Z,65.30
2018-09-20T13:50:05.761Z,65.40
2018-09-20T13:52:40.728Z,65.40
2018-09-20T14:00:25.212Z,65.40
2018-09-20T14:08:09.863Z,65.20
2018-09-20T14:13:19.782Z,65.40
2018-09-20T14:21:04.365Z,65.30
2018-09-20T14:23:39.460Z,65.40
2018-09-20T14:26:14.859Z,65.40
2018-09-20T14:33:59.629Z,65.30
2018-09-20T14:39:10.598Z,65.40
2018-09-20T14:41:45.646Z,65.30
2018-09-20T14:46:55.792Z,65.40
2018-09-20T14:49:30.847Z,65.40
2018-09-20T14:54:40.692Z,65.50
2018-09-20T14:59:50.834Z,65.40
2018-09-20T15:15:20.451Z,65.40
2018-09-20T15:17:55.496Z,65.40
2018-09-20T15:20:30.591Z,65.40
2018-09-20T15:25:40.475Z,65.50
2018-09-20T15:30:50.532Z,65.40
2018-09-20T15:38:35.156Z,65.40
2018-09-20T15:43:45.102Z,65.40
2018-09-20T15:46:20.170Z,65.50
2018-09-20T15:48:55.201Z,65.40
2018-09-20T15:51:30.376Z,65.40
2018-09-20T15:54:05.413Z,65.40
2018-09-20T15:56:40.584Z,65.30
2018-09-20T15:59:15.629Z,65.30
2018-09-20T16:01:51.473Z,65.50
2018-09-20T16:04:26.622Z,65.50
2018-09-20T16:09:36.505Z,65.20
2018-09-20T16:12:11.579Z,65.40
2018-09-20T16:14:46.632Z,65.50
2018-09-20T16:17:21.794Z,65.50
2018-09-20T16:19:56.893Z,65.40
2018-09-20T16:22:32.017Z,65.40
2018-09-20T16:25:07.537Z,65.40
2018-09-20T16:30:27.909Z,65.30
2018-09-20T16:35:55.560Z,65.30
2018-09-20T16:49:00.619Z,65.20
2018-09-20T16:56:45.429Z,65.30
2018-09-20T17:01:55.225Z,65.40
2018-09-20T17:07:05.222Z,65.30
2018-09-20T17:14:49.967Z,65.40
2018-09-20T17:20:00.145Z,65.50
2018-09-20T17:25:10.505Z,65.40
2018-09-20T17:30:20.387Z,65.40
2018-09-20T17:32:55.504Z,65.60
2018-09-20T17:35:31.131Z,65.50
2018-09-20T17:40:44.625Z,65.60
2018-09-20T17:43:23.744Z,65.70
2018-09-20T17:48:33.802Z,65.60
2018-09-20T17:56:21.518Z,65.50
2018-09-20T17:58:58.146Z,65.50
2018-09-20T18:04:40.457Z,65.50
2018-09-20T18:07:15.502Z,65.50
2018-09-20T18:09:51.161Z,65.50
2018-09-20T18:15:01.020Z,65.50
2018-09-20T18:17:38.135Z,65.60
2018-09-20T18:20:13.192Z,65.60
2018-09-20T18:22:48.256Z,65.60
2018-09-20T18:25:23.435Z,65.60
2018-09-20T18:27:58.585Z,65.70
2018-09-20T18:33:08.922Z,65.80
2018-09-20T18:35:44.064Z,65.80
2018-09-20T18:38:19.159Z,65.70
2018-09-20T18:40:54.572Z,65.70
2018-09-20T18:46:04.914Z,65.80
2018-09-20T18:51:14.741Z,65.80
2018-09-20T18:53:49.831Z,65.80
2018-09-20T18:58:59.921Z,65.90
2018-09-20T19:04:09.758Z,65.90
2018-09-20T19:11:54.469Z,66.00
2018-09-20T19:17:04.626Z,66.00
2018-09-20T19:22:14.704Z,66.00
2018-09-20T19:24:49.820Z,66.00
2018-09-20T19:27:25.240Z,66.00
2018-09-20T19:32:35.532Z,66.10
2018-09-20T19:37:45.361Z,66.10
2018-09-20T19:40:20.531Z,66.10
2018-09-20T19:42:55.761Z,66.10
2018-09-20T19:48:05.738Z,66.20
2018-09-20T19:50:40.813Z,66.10
2018-09-20T19:55:50.703Z,66.20
2018-09-20T20:06:11.059Z,66.30
2018-09-20T20:16:33.434Z,66.20
2018-09-20T20:21:43.898Z,66.40
2018-09-20T20:32:04.022Z,66.30
2018-09-20T20:34:39.065Z,66.30
2018-09-20T20:39:48.981Z,66.30
2018-09-20T20:47:34.121Z,66.40
2018-09-20T20:52:44.474Z,66.40
2018-09-20T20:55:19.650Z,66.40
2018-09-20T20:57:54.697Z,66.50
2018-09-20T21:21:08.913Z,66.60
2018-09-20T21:26:19.016Z,66.60
2018-09-20T21:31:30.006Z,66.60
2018-09-20T21:34:05.651Z,66.70
2018-09-20T21:39:16.009Z,66.60
2018-09-20T21:44:25.723Z,66.70
2018-09-20T21:52:10.605Z,66.70
2018-09-20T21:59:55.600Z,66.80
2018-09-20T22:02:35.950Z,66.80
2018-09-20T22:05:11.036Z,66.70
2018-09-20T22:12:56.117Z,66.70
2018-09-20T22:18:05.900Z,66.60
2018-09-20T22:20:40.954Z,66.70
2018-09-20T22:23:16.000Z,66.80
2018-09-20T22:25:51.054Z,66.80
2018-09-20T22:33:35.689Z,66.80
2018-09-20T22:38:46.269Z,66.90
2018-09-20T22:43:56.153Z,66.70
2018-09-20T22:59:26.197Z,66.90
2018-09-20T23:02:01.269Z,66.80
2018-09-20T23:07:11.125Z,66.70
2018-09-20T23:12:21.208Z,66.90
2018-09-20T23:17:30.902Z,66.70
2018-09-20T23:22:41.221Z,66.70
2018-09-20T23:27:51.530Z,66.80
2018-09-20T23:45:55.218Z,66.80
2018-09-20T23:51:05.585Z,66.90
